Time;durP1;ratioP1;P1;durP2;ratioP2;P2;SDS_P1;SDS_P2;PMS_P1;PMS_P2;Temp;Humidity;BMP_temperature;BMP_pressure;BME280_temperature;BME280_humidity;BME280_pressure;Samples;Min_cycle;Max_cycle;Signal;HPM_P1;HPM_P2
2021/04/12 00:01:14;;;;;;;18.42;10.00;;;358.70;1305.60;;;;;;5071421;28;20028;-73
2021/04/12 00:03:59;;;;;;;19.73;11.63;;;358.80;1305.60;;;;;;5071216;28;20028;-71
2021/04/12 00:06:44;;;;;;;18.08;11.02;;;358.70;1305.60;;;;;;5071359;28;20479;-73
2021/04/12 00:09:39;;;;;;;15.68;10.10;;;358.70;1331.20;;;;;;5071114;28;20033;-70
2021/04/12 00:12:37;;;;;;;16.08;10.20;;;358.70;1331.20;;;;;;5062339;28;20055;-70
2021/04/12 00:15:23;;;;;;;15.00;9.68;;;358.70;1331.20;;;;;;5037015;28;20033;-72
2021/04/12 00:17:52;;;;;;;16.65;9.80;;;358.70;1331.20;;;;;;5071415;28;20489;-71
2021/04/12 00:20:35;;;;;;;20.73;10.50;;;358.60;1331.20;;;;;;5070654;28;20107;-72
2021/04/12 00:23:17;;;;;;;19.25;8.82;;;358.60;1331.20;;;;;;5070990;28;20050;-73
2021/04/12 00:26:16;;;;;;;13.63;7.93;;;358.50;1331.20;;;;;;5070733;28;20028;-72
2021/04/12 00:28:53;;;;;;;13.25;8.00;;;358.50;1331.20;;;;;;5069064;28;20043;-71
2021/04/12 00:31:52;;;;;;;12.63;7.38;;;358.50;1331.20;;;;;;5071375;28;20020;-72
2021/04/12 00:34:33;;;;;;;16.77;7.88;;;358.50;1331.20;;;;;;5058822;28;20028;-71
2021/04/12 00:37:15;;;;;;;10.93;6.65;;;358.50;1331.20;;;;;;5070836;28;20478;-71
2021/04/12 00:39:42;;;;;;;13.80;7.28;;;358.50;1305.60;;;;;;5069256;28;20059;-71
2021/04/12 00:42:39;;;;;;;15.13;7.30;;;358.50;1305.60;;;;;;5070751;28;20497;-71
2021/04/12 00:45:26;;;;;;;12.52;6.25;;;358.40;1331.20;;;;;;5070780;28;20492;-71
2021/04/12 00:48:07;;;;;;;10.02;5.80;;;358.40;1305.60;;;;;;5070805;28;20017;-70
2021/04/12 00:50:57;;;;;;;10.80;5.97;;;358.50;1305.60;;;;;;5070323;28;20024;-71
2021/04/12 00:53:42;;;;;;;12.40;6.73;;;358.50;1331.20;;;;;;5069661;28;20031;-71
2021/04/12 00:56:37;;;;;;;11.93;6.72;;;358.40;1356.80;;;;;;5070738;28;20020;-71
2021/04/12 00:59:05;;;;;;;14.13;7.60;;;358.40;1356.80;;;;;;5067180;28;20040;-71
2021/04/12 01:02:00;;;;;;;14.75;7.75;;;358.40;1331.20;;;;;;5070506;28;20052;-72
2021/04/12 01:05:05;;;;;;;11.45;6.38;;;358.50;1356.80;;;;;;5015902;28;20041;-71
2021/04/12 01:08:11;;;;;;;16.10;6.70;;;358.50;1331.20;;;;;;5041771;28;20045;-73
2021/04/12 01:11:06;;;;;;;15.10;8.05;;;358.50;1305.60;;;;;;5038527;28;20809;-72
2021/04/12 01:13:53;;;;;;;15.98;8.40;;;358.40;1331.20;;;;;;5070600;28;20107;-71
2021/04/12 01:16:38;;;;;;;16.13;8.45;;;333.70;1356.80;;;;;;5070236;28;20031;-71
2021/04/12 01:19:22;;;;;;;14.10;7.85;;;333.60;1356.80;;;;;;5070544;28;20025;-70
2021/04/12 01:22:27;;;;;;;17.30;8.55;;;333.60;1356.80;;;;;;5070182;28;20016;-70
2021/04/12 01:25:30;;;;;;;15.25;8.25;;;333.60;1356.80;;;;;;5069717;28;20032;-71
2021/04/12 01:28:33;;;;;;;15.75;8.88;;;333.60;1356.80;;;;;;5070229;28;20063;-71
2021/04/12 01:31:23;;;;;;;17.77;8.75;;;333.50;1356.80;;;;;;5070188;28;20029;-71
2021/04/12 01:34:20;;;;;;;16.03;8.43;;;333.50;1356.80;;;;;;5070218;28;20429;-72
2021/04/12 01:36:54;;;;;;;14.25;8.15;;;333.50;1356.80;;;;;;5070180;28;20052;-71
2021/04/12 01:39:29;;;;;;;15.73;8.43;;;333.50;1356.80;;;;;;5070220;28;20028;-71
2021/04/12 01:42:14;;;;;;;15.18;8.07;;;333.40;1356.80;;;;;;5073563;28;20033;-71
2021/04/12 01:45:00;;;;;;;14.60;8.63;;;333.40;1382.40;;;;;;5074175;28;20496;-71
2021/04/12 01:47:41;;;;;;;15.82;8.60;;;333.40;1382.40;;;;;;5073873;28;20467;-70
2021/04/12 01:50:16;;;;;;;12.95;7.22;;;333.40;1382.40;;;;;;5073833;28;20095;-71
2021/04/12 01:53:04;;;;;;;14.23;7.70;;;333.30;1408.00;;;;;;5066955;28;20027;-72
2021/04/12 01:55:46;;;;;;;16.35;8.13;;;333.30;1408.00;;;;;;5073806;28;20036;-71
2021/04/12 01:58:15;;;;;;;19.25;9.82;;;333.30;1408.00;;;;;;5073851;28;20029;-71
2021/04/12 02:00:50;;;;;;;17.60;9.10;;;333.30;1408.00;;;;;;5073407;28;20024;-71
2021/04/12 02:03:48;;;;;;;25.98;11.23;;;333.20;1433.60;;;;;;5073710;28;20476;-71
2021/04/12 02:06:54;;;;;;;20.13;11.43;;;333.20;1408.00;;;;;;5073514;28;20093;-71
2021/04/12 02:09:29;;;;;;;20.23;10.68;;;333.10;1433.60;;;;;;5042362;28;20470;-71
2021/04/12 02:12:13;;;;;;;22.50;10.77;;;333.10;1433.60;;;;;;5059851;28;20049;-70
2021/04/12 02:15:16;;;;;;;21.75;11.75;;;333.10;1433.60;;;;;;5073355;28;20036;-71
2021/04/12 02:17:55;;;;;;;22.58;11.35;;;333.00;1433.60;;;;;;5073714;28;20020;-71
2021/04/12 02:20:44;;;;;;;19.17;10.10;;;333.00;1433.60;;;;;;5073556;28;20046;-71
2021/04/12 02:23:10;;;;;;;21.48;10.75;;;333.00;1433.60;;;;;;5073364;28;20028;-72
2021/04/12 02:26:03;;;;;;;19.45;10.55;;;332.90;1459.20;;;;;;5073430;28;20024;-72
2021/04/12 02:29:03;;;;;;;18.75;10.20;;;332.90;1459.20;;;;;;5072992;28;20020;-72
2021/04/12 02:31:37;;;;;;;20.02;10.65;;;332.90;1459.20;;;;;;5073310;28;20056;-71
2021/04/12 02:34:24;;;;;;;24.58;11.40;;;332.90;1510.40;;;;;;5073197;28;20024;-72
2021/04/12 02:37:06;;;;;;;23.85;12.70;;;332.90;1510.40;;;;;;5072960;28;20024;-71
2021/04/12 02:39:56;;;;;;;24.45;11.45;;;332.80;1536.00;;;;;;5066613;28;20024;-71
2021/04/12 02:42:40;;;;;;;22.48;12.15;;;332.80;1536.00;;;;;;5072951;28;20046;-72
2021/04/12 02:45:40;;;;;;;27.13;13.52;;;332.80;1561.60;;;;;;5073076;28;20031;-71
2021/04/12 02:48:37;;;;;;;27.98;13.27;;;308.10;1536.00;;;;;;5058487;28;20429;-71
2021/04/12 02:51:47;;;;;;;27.13;13.45;;;308.10;1510.40;;;;;;5072381;28;20535;-72
2021/04/12 02:54:27;;;;;;;22.10;11.82;;;308.10;1510.40;;;;;;5063673;28;20429;-72
2021/04/12 02:57:38;;;;;;;25.02;12.60;;;308.10;1536.00;;;;;;5072293;28;20032;-74
2021/04/12 03:00:26;;;;;;;25.45;12.50;;;308.10;1561.60;;;;;;5069470;28;20040;-71
2021/04/12 03:03:28;;;;;;;25.30;12.35;;;308.00;1536.00;;;;;;5072529;28;20052;-72
2021/04/12 03:06:00;;;;;;;28.58;14.43;;;308.00;1561.60;;;;;;5072392;28;20483;-70
2021/04/12 03:09:00;;;;;;;29.17;13.82;;;307.90;1561.60;;;;;;5072341;28;20047;-71
2021/04/12 03:12:20;;;;;;;29.65;14.57;;;307.90;1536.00;;;;;;5072552;28;20032;-71
2021/04/12 03:14:55;;;;;;;48.67;20.73;;;307.90;1536.00;;;;;;5030288;28;20396;-70
2021/04/12 03:17:55;;;;;;;48.30;21.10;;;307.90;1561.60;;;;;;5066122;28;20036;-71
2021/04/12 03:20:46;;;;;;;41.90;20.63;;;307.90;1561.60;;;;;;5072080;28;20131;-70
2021/04/12 03:23:30;;;;;;;41.78;19.63;;;307.90;1561.60;;;;;;5072527;28;20025;-71
2021/04/12 03:26:19;;;;;;;38.28;17.60;;;307.90;1587.20;;;;;;5071995;28;20391;-70
2021/04/12 03:29:15;;;;;;;35.80;17.45;;;307.90;1561.60;;;;;;5071490;28;20020;-70
2021/04/12 03:31:56;;;;;;;48.58;20.05;;;307.90;1587.20;;;;;;5072039;28;20074;-70
2021/04/12 03:34:49;;;;;;;43.80;18.88;;;308.00;1536.00;;;;;;5072140;28;20044;-70
2021/04/12 03:37:20;;;;;;;38.78;18.45;;;308.00;1612.80;;;;;;5071653;28;20032;-72
2021/04/12 03:40:13;;;;;;;32.78;16.65;;;307.90;1638.40;;;;;;5071570;28;20021;-71
2021/04/12 03:42:44;;;;;;;37.72;17.52;;;307.90;1587.20;;;;;;5071540;28;20047;-71
2021/04/12 03:45:20;;;;;;;37.00;18.33;;;307.90;1612.80;;;;;;5071559;28;20060;-70
2021/04/12 03:48:11;;;;;;;39.67;17.98;;;307.90;1587.20;;;;;;5064466;28;20449;-72
2021/04/12 03:50:57;;;;;;;36.05;16.95;;;307.80;1587.20;;;;;;5069839;28;20542;-71
2021/04/12 03:53:49;;;;;;;48.95;22.58;;;307.70;1612.80;;;;;;5062942;28;20025;-70
2021/04/12 03:56:24;;;;;;;53.63;23.52;;;307.70;1561.60;;;;;;5067499;28;20028;-70
2021/04/12 03:59:33;;;;;;;48.40;20.85;;;307.70;1587.20;;;;;;5070975;28;20032;-72
2021/04/12 04:02:11;;;;;;;42.13;19.23;;;307.70;1587.20;;;;;;5063801;28;20103;-71
2021/04/12 04:04:50;;;;;;;48.53;22.05;;;307.70;1561.60;;;;;;5071037;28;20012;-70
2021/04/12 04:07:40;;;;;;;45.13;19.85;;;307.70;1612.80;;;;;;5071217;28;20126;-70
2021/04/12 04:10:30;;;;;;;45.47;20.92;;;307.70;1612.80;;;;;;5071971;28;20104;-69
2021/04/12 04:13:15;;;;;;;46.10;19.58;;;307.80;1587.20;;;;;;5069255;28;20017;-70
2021/04/12 04:16:18;;;;;;;39.40;18.60;;;307.80;1612.80;;;;;;5063960;28;20029;-70
2021/04/12 04:19:12;;;;;;;40.53;17.40;;;307.80;1587.20;;;;;;5069701;28;20059;-70
2021/04/12 04:22:03;;;;;;;37.65;16.98;;;307.90;1561.60;;;;;;5070753;28;20077;-70
2021/04/12 04:24:43;;;;;;;37.90;19.38;;;307.90;1510.40;;;;;;5070917;28;20487;-70
2021/04/12 04:27:28;;;;;;;29.77;14.75;;;308.00;1484.80;;;;;;5070913;28;20032;-70
2021/04/12 04:30:13;;;;;;;21.27;10.93;;;308.10;1459.20;;;;;;5070243;28;20046;-70
2021/04/12 04:33:00;;;;;;;23.25;11.70;;;332.80;1433.60;;;;;;5063327;28;20103;-70
2021/04/12 04:35:45;;;;;;;25.08;11.73;;;333.00;1433.60;;;;;;5067470;28;20062;-70
2021/04/12 04:38:30;;;;;;;22.67;12.15;;;333.20;1433.60;;;;;;5070774;28;20039;-70
2021/04/12 04:41:06;;;;;;;21.00;9.40;;;333.40;1433.60;;;;;;5070467;28;20028;-70
2021/04/12 04:43:53;;;;;;;17.25;10.60;;;333.50;1408.00;;;;;;5070582;28;20043;-70
2021/04/12 04:46:34;;;;;;;17.33;11.10;;;333.60;1408.00;;;;;;5064008;28;20033;-70
2021/04/12 04:49:09;;;;;;;;;;;333.50;1408.00;;;;;;5063158;28;20081;-70
2021/04/12 04:51:41;;;;;;;19.90;8.57;;;333.30;1433.60;;;;;;5069170;28;19999;-70
2021/04/12 04:54:34;;;;;;;13.50;7.85;;;333.20;1459.20;;;;;;5070653;28;20051;-71
2021/04/12 04:57:25;;;;;;;12.65;8.05;;;333.10;1459.20;;;;;;5059225;28;20025;-70
2021/04/12 05:00:13;;;;;;;17.85;7.82;;;333.10;1484.80;;;;;;5070303;28;20024;-73
2021/04/12 05:03:08;;;;;;;14.02;8.40;;;333.00;1484.80;;;;;;5070709;28;20031;-70
2021/04/12 05:05:57;;;;;;;17.90;8.90;;;333.10;1484.80;;;;;;5058965;28;20064;-71
2021/04/12 05:09:00;;;;;;;16.25;9.07;;;333.10;1484.80;;;;;;5070450;28;20020;-70
2021/04/12 05:11:41;;;;;;;18.27;9.70;;;333.10;1484.80;;;;;;5070271;28;20503;-70
2021/04/12 05:14:43;;;;;;;28.52;16.63;;;333.10;1484.80;;;;;;5070603;28;20037;-70
2021/04/12 05:17:18;;;;;;;46.67;24.92;;;333.10;1484.80;;;;;;5074832;28;20098;-70
2021/04/12 05:20:14;;;;;;;42.20;18.35;;;333.10;1536.00;;;;;;5074114;28;20025;-70
2021/04/12 05:22:47;;;;;;;27.67;13.45;;;333.10;1561.60;;;;;;5063722;28;20044;-70
2021/04/12 05:25:28;;;;;;;26.75;14.23;;;308.10;1536.00;;;;;;5074087;28;20031;-70
2021/04/12 05:28:04;;;;;;;;;;;308.10;1510.40;;;;;;5074544;28;20070;-71
2021/04/12 05:30:59;;;;;;;22.58;12.05;;;332.90;1510.40;;;;;;5073905;28;20027;-70
2021/04/12 05:33:27;;;;;;;22.88;11.70;;;333.50;1433.60;;;;;;5074165;28;20048;-70
2021/04/12 05:35:59;;;;;;;25.08;12.13;;;358.90;1382.40;;;;;;5060174;28;20078;-71
2021/04/12 05:38:28;;;;;;;22.75;11.40;;;409.60;1305.60;;;;;;5074002;28;20028;-70
2021/04/12 05:40:59;;;;;;;22.55;11.80;;;435.50;1228.80;;;;;;5073775;28;20039;-71
2021/04/12 05:43:43;;;;;;;20.90;12.93;;;461.10;1177.60;;;;;;5074088;28;20518;-71
2021/04/12 05:46:21;;;;;;;24.65;14.68;;;461.70;1152.00;;;;;;5060571;28;20505;-70
2021/04/12 05:48:52;;;;;;;20.25;12.20;;;487.00;1100.80;;;;;;5064517;28;20685;-70
2021/04/12 05:51:21;;;;;;;18.20;10.90;;;512.50;1049.60;;;;;;5072430;28;20031;-69
2021/04/12 05:54:31;;;;;;;17.30;10.80;;;538.00;1024.00;;;;;;5074163;28;20438;-69
2021/04/12 05:57:29;;;;;;;15.23;10.30;;;538.50;972.80;;;;;;5070636;28;20063;-69
2021/04/12 06:00:28;;;;;;;13.85;8.07;;;563.90;972.80;;;;;;5072602;28;20032;-69
2021/04/12 06:03:31;;;;;;;11.25;6.78;;;564.00;921.60;;;;;;5073293;28;20059;-70
2021/04/12 06:06:23;;;;;;;11.68;7.25;;;563.30;947.20;;;;;;5073645;28;20028;-70
2021/04/12 06:08:58;;;;;;;10.55;5.97;;;564.10;896.00;;;;;;5060897;28;20053;-70
2021/04/12 06:11:53;;;;;;;9.10;5.72;;;563.60;921.60;;;;;;5073368;28;20075;-70
2021/04/12 06:14:29;;;;;;;9.23;6.45;;;563.80;921.60;;;;;;5073499;28;20020;-70
2021/04/12 06:17:25;;;;;;;6.28;4.68;;;589.10;896.00;;;;;;5071170;28;20024;-70
2021/04/12 06:20:25;;;;;;;7.05;4.90;;;564.10;896.00;;;;;;5072928;28;20390;-71
2021/04/12 06:23:20;;;;;;;9.68;5.68;;;589.00;870.40;;;;;;5073218;28;20040;-70
2021/04/12 06:26:30;;;;;;;8.07;5.28;;;614.60;844.80;;;;;;5064242;28;20371;-69
2021/04/12 06:28:59;;;;;;;8.10;5.43;;;614.70;819.20;;;;;;5056847;28;20028;-70
2021/04/12 06:31:46;;;;;;;7.82;5.15;;;640.70;793.60;;;;;;5073210;28;20032;-70
2021/04/12 06:34:17;;;;;;;8.75;5.15;;;640.90;768.00;;;;;;5062400;28;20060;-70
2021/04/12 06:36:58;;;;;;;8.55;5.10;;;640.30;768.00;;;;;;5073140;28;20021;-70
2021/04/12 06:39:48;;;;;;;10.35;5.45;;;665.80;793.60;;;;;;5068792;28;20017;-70
2021/04/12 06:42:34;;;;;;;9.68;5.50;;;666.20;768.00;;;;;;5072876;28;20021;-70
2021/04/12 06:45:24;;;;;;;9.57;6.40;;;666.30;768.00;;;;;;5064193;28;20020;-70
2021/04/12 06:48:14;;;;;;;10.18;6.70;;;666.50;768.00;;;;;;5060411;28;20033;-70
2021/04/12 06:51:21;;;;;;;7.57;5.25;;;666.20;768.00;;;;;;5072465;28;20146;-70
2021/04/12 06:54:40;;;;;;;8.85;5.38;;;692.10;742.40;;;;;;5072795;28;20126;-70
2021/04/12 06:57:24;;;;;;;12.38;7.65;;;691.80;742.40;;;;;;5003151;28;20079;-70
2021/04/12 07:00:11;;;;;;;10.60;6.07;;;691.80;768.00;;;;;;5030007;28;20986;-70
2021/04/12 07:03:14;;;;;;;21.33;13.90;;;716.90;768.00;;;;;;5050996;28;20503;-70
2021/04/12 07:05:49;;;;;;;8.00;4.60;;;716.90;768.00;;;;;;5067418;28;20101;-70
2021/04/12 07:08:27;;;;;;;7.20;5.05;;;691.20;793.60;;;;;;5072285;28;20020;-69
2021/04/12 07:11:30;;;;;;;12.23;8.65;;;665.90;819.20;;;;;;5071805;28;20661;-69
2021/04/12 07:14:24;;;;;;;10.52;7.43;;;691.30;819.20;;;;;;5070709;28;20024;-69
2021/04/12 07:17:01;;;;;;;8.10;5.22;;;692.00;768.00;;;;;;5071930;28;20111;-70
2021/04/12 07:20:25;;;;;;;13.25;7.47;;;717.20;768.00;;;;;;5072038;28;20035;-70
2021/04/12 07:23:03;;;;;;;12.75;8.35;;;691.40;793.60;;;;;;5041349;28;20099;-70
2021/04/12 07:26:03;;;;;;;12.20;7.88;;;691.20;819.20;;;;;;5069897;28;20107;-70
2021/04/12 07:29:03;;;;;;;14.05;8.38;;;666.50;819.20;;;;;;5058768;28;20086;-70
2021/04/12 07:31:47;;;;;;;9.30;5.10;;;691.90;793.60;;;;;;5087669;28;20024;-70
2021/04/12 07:34:37;;;;;;;7.80;5.57;;;716.90;793.60;;;;;;5075239;28;20063;-71
2021/04/12 07:37:49;;;;;;;7.40;5.38;;;717.20;793.60;;;;;;5071349;28;20031;-71
2021/04/12 07:40:53;;;;;;;7.90;5.30;;;717.50;793.60;;;;;;5064311;28;20032;-71
2021/04/12 07:44:09;;;;;;;8.63;5.20;;;768.60;793.60;;;;;;5071911;28;20082;-70
2021/04/12 07:47:19;;;;;;;9.50;5.47;;;794.50;742.40;;;;;;5061814;28;20055;-71
2021/04/12 07:50:02;;;;;;;10.25;5.50;;;844.90;742.40;;;;;;5050083;28;20494;-72
2021/04/12 07:53:18;;;;;;;12.40;7.60;;;844.90;742.40;;;;;;5071245;28;20116;-71
2021/04/12 07:56:05;;;;;;;9.32;5.50;;;845.10;716.80;;;;;;5065553;28;20042;-71
2021/04/12 07:58:56;;;;;;;7.30;5.30;;;845.30;716.80;;;;;;5060105;28;20028;-68
2021/04/12 08:01:45;;;;;;;12.63;7.47;;;794.50;742.40;;;;;;5071183;28;20023;-66
2021/04/12 08:04:17;;;;;;;7.70;4.88;;;794.50;742.40;;;;;;5071472;28;20028;-66
2021/04/12 08:07:21;;;;;;;8.05;5.45;;;794.50;742.40;;;;;;5068216;28;20060;-66
2021/04/12 08:10:17;;;;;;;9.55;6.25;;;819.50;716.80;;;;;;5040400;28;20045;-67
2021/04/12 08:13:29;;;;;;;8.77;5.38;;;793.80;768.00;;;;;;5069993;28;20037;-66
2021/04/12 08:16:32;;;;;;;10.45;5.00;;;794.00;768.00;;;;;;5061251;28;20029;-65
2021/04/12 08:19:15;;;;;;;7.32;4.55;;;819.50;716.80;;;;;;5068372;28;20454;-67
2021/04/12 08:21:47;;;;;;;11.15;5.95;;;794.30;768.00;;;;;;5070507;28;20024;-67
2021/04/12 08:24:46;;;;;;;9.32;5.30;;;845.10;716.80;;;;;;5067499;28;20572;-68
2021/04/12 08:27:24;;;;;;;7.38;4.70;;;844.90;742.40;;;;;;5069449;28;20020;-70
2021/04/12 08:30:17;;;;;;;11.05;5.60;;;819.20;742.40;;;;;;5070481;28;20031;-71
2021/04/12 08:33:10;;;;;;;9.25;4.90;;;819.70;742.40;;;;;;5064776;28;20165;-66
2021/04/12 08:35:54;;;;;;;7.72;4.43;;;794.20;742.40;;;;;;5070833;28;20448;-65
2021/04/12 08:38:41;;;;;;;9.23;4.97;;;794.20;742.40;;;;;;5070634;28;20020;-69
2021/04/12 08:41:19;;;;;;;8.13;4.70;;;820.00;716.80;;;;;;5064212;28;20394;-66
2021/04/12 08:44:09;;;;;;;7.43;4.43;;;870.80;716.80;;;;;;5065862;28;20032;-65
2021/04/12 08:46:54;;;;;;;;;;;870.80;691.20;;;;;;5069778;28;20021;-65
2021/04/12 08:49:22;;;;;;;10.07;5.80;;;845.20;716.80;;;;;;5064799;28;19908;-66
2021/04/12 08:52:30;;;;;;;8.05;4.50;;;871.00;691.20;;;;;;5069148;28;20408;-65
2021/04/12 08:55:21;;;;;;;7.82;4.43;;;871.30;691.20;;;;;;5070288;28;20017;-66
2021/04/12 08:57:46;;;;;;;6.63;4.00;;;870.90;665.60;;;;;;5070307;28;20071;-67
2021/04/12 09:00:57;;;;;;;7.85;4.38;;;871.30;665.60;;;;;;5070581;28;20025;-66
2021/04/12 09:03:25;;;;;;;;;;;921.70;665.60;;;;;;5036923;28;20493;-69
2021/04/12 09:06:52;;;;;;;6.47;4.05;;;921.60;665.60;;;;;;5070263;28;19919;-67
2021/04/12 09:09:40;;;;;;;6.95;4.18;;;794.40;716.80;;;;;;5036193;28;20388;-66
2021/04/12 09:12:20;;;;;;;12.38;4.75;;;870.70;691.20;;;;;;5056558;28;20123;-66
2021/04/12 09:15:23;;;;;;;10.90;4.15;;;844.90;716.80;;;;;;5070298;28;20020;-66
2021/04/12 09:18:16;;;;;;;6.80;4.10;;;844.90;742.40;;;;;;5070719;28;20067;-67
2021/04/12 09:21:15;;;;;;;9.57;4.45;;;845.70;716.80;;;;;;5070276;28;20031;-66
2021/04/12 09:24:04;;;;;;;8.15;3.90;;;845.40;716.80;;;;;;5070141;28;20031;-66
2021/04/12 09:26:48;;;;;;;7.75;3.75;;;819.80;716.80;;;;;;5070430;28;20085;-66
2021/04/12 09:29:39;;;;;;;11.57;6.18;;;794.50;742.40;;;;;;5057504;28;20027;-66
2021/04/12 09:32:33;;;;;;;6.93;4.00;;;768.00;768.00;;;;;;5070088;28;20051;-66
2021/04/12 09:35:37;;;;;;;9.50;4.30;;;716.90;793.60;;;;;;5070377;28;20094;-66
2021/04/12 09:38:29;;;;;;;8.80;4.15;;;691.20;793.60;;;;;;5060205;28;20059;-67
2021/04/12 09:41:19;;;;;;;10.05;4.75;;;691.60;793.60;;;;;;5069943;28;20070;-68
2021/04/12 09:44:19;;;;;;;8.15;4.20;;;666.30;819.20;;;;;;5069977;28;20028;-69
2021/04/12 09:47:01;;;;;;;8.55;4.65;;;640.20;819.20;;;;;;5067369;28;20021;-66
2021/04/12 09:49:54;;;;;;;10.55;4.50;;;640.90;793.60;;;;;;5065006;28;20021;-66
2021/04/12 09:52:23;;;;;;;7.47;4.55;;;640.90;793.60;;;;;;5070288;28;20483;-65
2021/04/12 09:55:26;;;;;;;8.55;3.97;;;665.70;819.20;;;;;;5070285;28;20438;-65
2021/04/12 09:57:52;;;;;;;8.63;4.68;;;640.20;819.20;;;;;;5070060;28;20024;-67
2021/04/12 10:00:36;;;;;;;11.05;4.43;;;640.10;844.80;;;;;;5070120;28;20032;-66
2021/04/12 10:03:27;;;;;;;11.32;4.63;;;640.20;819.20;;;;;;5073693;28;20064;-65
2021/04/12 10:06:36;;;;;;;9.00;4.25;;;615.30;844.80;;;;;;5073661;28;20029;-65
2021/04/12 10:09:23;;;;;;;7.07;3.55;;;640.00;844.80;;;;;;5073431;28;20483;-65
2021/04/12 10:12:01;;;;;;;8.35;4.13;;;640.00;844.80;;;;;;5073455;28;20056;-69
2021/04/12 10:14:42;;;;;;;8.40;3.53;;;640.10;844.80;;;;;;5073710;28;20040;-67
2021/04/12 10:17:11;;;;;;;;;;;640.40;844.80;;;;;;5073862;28;20501;-66
2021/04/12 10:19:49;;;;;;;8.98;3.70;;;640.50;844.80;;;;;;5073247;28;19967;-65
2021/04/12 10:22:36;;;;;;;7.93;3.30;;;640.50;819.20;;;;;;5073122;28;20031;-67
2021/04/12 10:25:16;;;;;;;8.07;3.22;;;640.10;819.20;;;;;;5073393;28;20471;-66
2021/04/12 10:27:42;;;;;;;6.93;3.33;;;640.10;844.80;;;;;;5073436;28;20025;-69
2021/04/12 10:30:10;;;;;;;9.05;3.80;;;640.50;819.20;;;;;;5072712;28;20048;-70
2021/04/12 10:33:01;;;;;;;8.80;3.10;;;640.20;819.20;;;;;;5073248;28;20066;-66
2021/04/12 10:35:37;;;;;;;7.20;3.20;;;640.20;819.20;;;;;;5073073;28;20024;-66
2021/04/12 10:38:17;;;;;;;6.18;3.50;;;640.60;844.80;;;;;;5073199;28;20025;-65
2021/04/12 10:41:15;;;;;;;11.07;4.20;;;640.90;819.20;;;;;;5072651;28;20023;-66
2021/04/12 10:44:07;;;;;;;7.45;3.35;;;640.80;844.80;;;;;;5072713;28;20786;-66
2021/04/12 10:46:57;;;;;;;8.93;4.25;;;640.70;819.20;;;;;;5071893;28;20493;-65
2021/04/12 10:49:48;;;;;;;7.40;3.42;;;665.60;870.40;;;;;;5067948;28;20022;-65
2021/04/12 10:52:32;;;;;;;6.32;2.90;;;640.90;819.20;;;;;;5071238;28;20024;-66
2021/04/12 10:55:13;;;;;;;8.50;3.70;;;640.90;819.20;;;;;;5072759;28;20150;-66
2021/04/12 10:57:41;;;;;;;;;;;665.70;844.80;;;;;;5072992;28;20027;-66
2021/04/12 11:00:29;;;;;;;6.68;2.85;;;665.80;819.20;;;;;;5072291;28;19909;-66
2021/04/12 11:03:18;;;;;;;8.88;2.72;;;665.60;819.20;;;;;;5071964;28;20467;-70
2021/04/12 11:05:53;;;;;;;8.77;2.70;;;666.00;819.20;;;;;;5071637;28;20475;-67
2021/04/12 11:08:29;;;;;;;9.52;3.30;;;666.30;819.20;;;;;;5072701;28;20422;-67
2021/04/12 11:11:19;;;;;;;11.20;4.13;;;666.30;819.20;;;;;;5062828;28;20044;-65
2021/04/12 11:14:11;;;;;;;7.95;3.05;;;666.30;844.80;;;;;;5070370;28;20604;-65
2021/04/12 11:16:45;;;;;;;13.32;4.40;;;691.60;844.80;;;;;;5069079;28;20082;-65
2021/04/12 11:19:40;;;;;;;18.30;5.85;;;691.20;793.60;;;;;;5071538;28;20056;-65
2021/04/12 11:22:15;;;;;;;10.05;3.95;;;666.30;819.20;;;;;;5071816;28;20024;-66
2021/04/12 11:24:56;;;;;;;9.82;3.42;;;665.90;819.20;;;;;;5071598;28;20025;-64
2021/04/12 11:27:49;;;;;;;9.68;3.17;;;665.70;844.80;;;;;;5069825;28;20075;-66
2021/04/12 11:30:31;;;;;;;16.85;4.22;;;665.80;819.20;;;;;;5071031;28;20095;-66
2021/04/12 11:33:12;;;;;;;11.32;3.10;;;666.00;844.80;;;;;;5072029;28;20028;-66
2021/04/12 11:35:49;;;;;;;8.63;2.60;;;666.20;844.80;;;;;;5072014;28;20017;-66
2021/04/12 11:38:20;;;;;;;12.52;5.03;;;666.50;844.80;;;;;;5071678;28;20021;-66
2021/04/12 11:41:18;;;;;;;20.73;8.07;;;666.40;819.20;;;;;;5071453;28;20103;-66
2021/04/12 11:43:52;;;;;;;13.88;5.75;;;691.70;793.60;;;;;;5066035;28;20040;-65
2021/04/12 11:46:53;;;;;;;10.23;3.65;;;691.60;844.80;;;;;;5071764;28;20012;-65
2021/04/12 11:49:43;;;;;;;7.65;2.90;;;691.20;819.20;;;;;;5062020;28;20040;-65
2021/04/12 11:52:40;;;;;;;7.43;3.40;;;666.50;819.20;;;;;;5070097;28;20028;-67
2021/04/12 11:55:29;;;;;;;9.73;3.42;;;691.80;819.20;;;;;;5040355;28;20257;-66
2021/04/12 11:58:01;;;;;;;9.60;3.95;;;716.80;870.40;;;;;;5071689;28;20033;-68
2021/04/12 12:00:38;;;;;;;8.95;3.38;;;692.10;819.20;;;;;;5070635;28;20058;-68
2021/04/12 12:03:28;;;;;;;10.35;3.33;;;716.80;844.80;;;;;;5067374;28;20078;-65
2021/04/12 12:06:17;;;;;;;10.63;3.72;;;717.10;819.20;;;;;;5080448;28;20028;-66
2021/04/12 12:08:48;;;;;;;9.85;3.50;;;691.60;819.20;;;;;;5072509;28;20386;-66
2021/04/12 12:11:23;;;;;;;13.18;3.67;;;692.00;844.80;;;;;;5084819;28;20081;-66
2021/04/12 12:13:57;;;;;;;9.75;3.20;;;691.50;844.80;;;;;;5086447;28;20451;-67
2021/04/12 12:16:40;;;;;;;12.63;3.10;;;666.50;844.80;;;;;;5077997;28;20368;-64
2021/04/12 12:19:40;;;;;;;10.00;3.08;;;666.50;844.80;;;;;;5069945;28;20036;-65
2021/04/12 12:22:26;;;;;;;10.15;3.50;;;691.60;870.40;;;;;;5070405;28;20113;-66
2021/04/12 12:25:13;;;;;;;8.30;3.08;;;691.40;844.80;;;;;;5069879;28;20021;-66
2021/04/12 12:27:42;;;;;;;11.27;4.07;;;691.30;844.80;;;;;;5069239;28;20028;-65
2021/04/12 12:30:28;;;;;;;8.35;3.00;;;691.20;844.80;;;;;;5070716;28;20024;-66
2021/04/12 12:33:04;;;;;;;7.80;3.58;;;691.30;844.80;;;;;;5071001;28;20436;-67
2021/04/12 12:35:33;;;;;;;9.52;3.33;;;691.30;844.80;;;;;;5070734;28;20090;-65
2021/04/12 12:38:33;;;;;;;12.13;4.38;;;691.60;844.80;;;;;;5074031;28;20063;-65
2021/04/12 12:41:04;;;;;;;11.70;3.88;;;691.70;844.80;;;;;;5070748;28;20494;-65
2021/04/12 12:43:31;;;;;;;8.00;3.42;;;691.40;870.40;;;;;;5069968;28;20475;-66
2021/04/12 12:46:13;;;;;;;11.80;3.92;;;691.60;844.80;;;;;;5069136;28;20032;-66
2021/04/12 12:48:48;;;;;;;11.98;4.32;;;691.80;844.80;;;;;;5068585;28;20021;-66
2021/04/12 12:51:31;;;;;;;12.43;5.03;;;691.40;870.40;;;;;;5068962;28;20032;-66
2021/04/12 12:54:22;;;;;;;12.68;4.25;;;691.60;870.40;;;;;;5070530;28;20028;-65
2021/04/12 12:56:49;;;;;;;14.85;3.63;;;691.60;896.00;;;;;;5057009;28;20040;-66
2021/04/12 12:59:26;;;;;;;10.30;3.17;;;691.30;870.40;;;;;;5070127;28;20016;-66
2021/04/12 13:01:54;;;;;;;12.35;3.30;;;666.30;870.40;;;;;;5065115;28;20035;-65
2021/04/12 13:04:29;;;;;;;11.68;3.65;;;666.30;896.00;;;;;;5070570;28;20537;-65
2021/04/12 13:07:08;;;;;;;9.32;3.70;;;666.40;896.00;;;;;;5068880;28;20040;-66
2021/04/12 13:09:37;;;;;;;11.10;3.05;;;691.20;870.40;;;;;;5069775;28;20028;-65
2021/04/12 13:12:10;;;;;;;11.32;3.00;;;691.30;896.00;;;;;;5069810;28;20049;-65
2021/04/12 13:14:37;;;;;;;11.15;3.00;;;691.40;896.00;;;;;;5070107;28;20479;-65
2021/04/12 13:17:31;;;;;;;10.90;3.03;;;666.50;896.00;;;;;;5070404;28;20398;-65
2021/04/12 13:20:05;;;;;;;12.50;3.20;;;691.20;921.60;;;;;;5069685;28;20112;-65
2021/04/12 13:22:36;;;;;;;12.80;3.42;;;691.20;896.00;;;;;;5058095;28;20073;-66
2021/04/12 13:25:29;;;;;;;10.15;2.88;;;691.40;896.00;;;;;;5070054;28;20054;-66
2021/04/12 13:28:00;;;;;;;12.77;3.17;;;691.50;896.00;;;;;;5059644;28;20032;-66
2021/04/12 13:30:33;;;;;;;10.73;3.13;;;666.50;870.40;;;;;;5070053;28;20028;-66
2021/04/12 13:33:14;;;;;;;11.07;3.38;;;666.50;870.40;;;;;;5069112;28;20044;-66
2021/04/12 13:35:42;;;;;;;;;;;666.50;896.00;;;;;;5070536;28;20024;-65
2021/04/12 13:38:19;;;;;;;11.40;3.50;;;666.30;896.00;;;;;;5074057;28;19912;-66
2021/04/12 13:40:49;;;;;;;15.35;3.05;;;666.30;896.00;;;;;;5089470;28;20032;-64
2021/04/12 13:43:18;;;;;;;13.38;3.45;;;666.30;896.00;;;;;;5091782;28;20056;-66
2021/04/12 13:45:46;;;;;;;10.60;3.50;;;691.20;896.00;;;;;;5083219;28;20381;-66
2021/04/12 13:48:20;;;;;;;10.40;3.42;;;691.20;896.00;;;;;;5080112;28;20020;-65
2021/04/12 13:50:52;;;;;;;10.60;3.25;;;691.40;896.00;;;;;;5084061;28;20024;-65